ELTT2: Beaver Creek nr Electra 9S

Data processed at Tue May 21 2019 21:50


All information presented herein is the property of the government of the United States of America and may be revised or deleted at any time without prior notice.
Dissemination of this information without the expressed written consent of the Public Affairs Office, Tulsa District U.S. Army Corps of Engineers is strictly prohibited.
These data are gathered electronically and, as presented, have not undergone any form of quality control. These data are not guaranteed to be valid or correct.
Go to home page.
Go to station list.
Go to home page.

Downstream station:


Previous Day
Next Day
Current Day
    
SHEF ID:       ELTT2     Beaver Creek nr Electra, TX
STATION TYPE:  

               PRECIP     STAGE  RIV-FLOW  BAT-LOAD
                   in        ft       cfs      volt
              Ccp-Rev   Ccp-Rev   Ccp-Rev   Ccp-Rev
(US/Central)
05/21 00:00      0.06     19.16       793     11.83
05/21 01:00      0.04     19.00       770     11.83
05/21 02:00      0.52     18.95       762     11.83
05/21 03:00      0.36     18.98       767     11.83
05/21 04:00      0.09     19.07       780     11.83
05/21 05:00      0.19     19.25       807     11.83
05/21 06:00      0.01     19.51       845     11.83
05/21 07:00      0.00     19.90       904     11.77
05/21 08:00      0.00     20.37       978     11.77
05/21 09:00      0.00     20.92      1065     11.77
05/21 10:00      0.00     21.51      1162     11.77
05/21 11:00      0.00     22.08      1258     11.77
05/21 12:00      0.00     22.66      1361     11.83
05/21 13:00      0.00     23.19      1458     11.83
05/21 14:00      ----     23.61      1529      ----
05/21 15:00      ----     23.95      1587     11.83
05/21 16:00      0.00     24.18      1627     11.83
05/21 17:00      0.00     24.42      1668     11.83
05/21 18:00      0.00     24.66      1710     11.83
05/21 19:00      0.00     24.89      1750     11.83
05/21 20:00      0.00     25.08      1782     11.83
05/21 21:00      0.00     25.27      1813     11.83
05/21 22:00      ----      ----      ----      ----
05/21 23:00      ----      ----      ----      ----